Time;durP1;ratioP1;P1;durP2;ratioP2;P2;SDS_P1;SDS_P2;PMS_P1;PMS_P2;Temp;Humidity;BMP_temperature;BMP_pressure;BME280_temperature;BME280_humidity;BME280_pressure;Samples;Min_cycle;Max_cycle;Signal;HPM_P1;HPM_P2
2020/12/14 00:01:13;;;;;;;5.90;5.40;;;8.50;42.70;;;;;;5049938;28;20298;-66
2020/12/14 00:03:38;;;;;;;6.87;6.30;;;8.70;42.50;;;;;;5051995;28;20564;-66
2020/12/14 00:06:04;;;;;;;6.30;5.80;;;8.80;43.10;;;;;;5053657;28;20183;-65
2020/12/14 00:08:29;;;;;;;6.33;5.80;;;8.70;42.40;;;;;;5053304;28;20215;-65
2020/12/14 00:10:55;;;;;;;6.73;6.23;;;8.90;42.10;;;;;;5053487;28;20180;-65
2020/12/14 00:13:20;;;;;;;6.50;6.00;;;8.70;41.90;;;;;;5051760;28;20590;-65
2020/12/14 00:15:46;;;;;;;6.57;6.07;;;8.60;42.30;;;;;;5051560;28;20686;-65
2020/12/14 00:18:11;;;;;;;6.60;5.90;;;8.50;42.60;;;;;;5051455;28;20681;-65
2020/12/14 00:20:37;;;;;;;8.60;5.90;;;8.40;42.90;;;;;;5051664;28;20178;-65
2020/12/14 00:23:02;;;;;;;6.80;6.30;;;8.10;43.70;;;;;;5051296;28;20239;-65
2020/12/14 00:25:28;;;;;;;6.43;5.93;;;8.30;43.90;;;;;;5051534;28;20255;-65
2020/12/14 00:27:53;;;;;;;6.60;6.10;;;8.00;44.40;;;;;;5052463;28;20199;-64
2020/12/14 00:30:19;;;;;;;6.93;6.33;;;8.10;44.80;;;;;;5053500;28;20686;-65
2020/12/14 00:32:44;;;;;;;6.40;5.90;;;8.10;44.10;;;;;;5053295;28;20192;-66
2020/12/14 00:35:10;;;;;;;5.90;5.40;;;7.90;44.90;;;;;;5053193;28;20180;-65
2020/12/14 00:37:35;;;;;;;6.23;5.70;;;7.90;44.60;;;;;;5052962;28;20203;-65
2020/12/14 00:40:01;;;;;;;6.33;5.73;;;8.10;44.40;;;;;;5053056;28;20172;-66
2020/12/14 00:42:26;;;;;;;6.67;6.07;;;7.90;44.80;;;;;;5053005;28;20621;-65
2020/12/14 00:44:52;;;;;;;5.90;5.37;;;7.90;44.20;;;;;;5052969;28;20203;-65
2020/12/14 00:47:17;;;;;;;6.07;5.57;;;7.90;44.40;;;;;;5052687;28;20186;-66
2020/12/14 00:49:45;;;;;;;6.40;5.80;;;8.10;44.00;;;;;;5052828;28;20176;-66
2020/12/14 00:52:11;;;;;;;6.03;5.50;;;8.20;43.50;;;;;;5052717;28;20283;-65
2020/12/14 00:54:36;;;;;;;6.20;5.60;;;8.20;43.60;;;;;;5052792;28;20557;-66
2020/12/14 00:57:02;;;;;;;6.20;5.70;;;8.00;43.80;;;;;;5052617;28;20766;-65
2020/12/14 00:59:28;;;;;;;5.30;4.90;;;8.00;44.00;;;;;;5051414;28;20201;-65
2020/12/14 01:01:54;;;;;;;6.10;4.60;;;8.20;43.50;;;;;;5052567;28;20199;-66
2020/12/14 01:04:20;;;;;;;5.17;4.77;;;8.10;43.00;;;;;;5052484;28;20183;-66
2020/12/14 01:06:46;;;;;;;5.60;4.83;;;8.20;43.20;;;;;;5052539;28;20426;-65
2020/12/14 01:09:12;;;;;;;5.10;4.80;;;8.20;43.30;;;;;;5052410;28;20411;-66
2020/12/14 01:11:37;;;;;;;5.10;4.70;;;8.10;42.70;;;;;;5052364;28;20292;-65
2020/12/14 01:14:03;;;;;;;5.47;5.00;;;8.10;43.30;;;;;;5051792;28;20195;-65
2020/12/14 01:16:28;;;;;;;5.73;5.33;;;7.90;43.80;;;;;;5052249;28;20200;-65
2020/12/14 01:18:54;;;;;;;5.47;5.07;;;8.00;43.50;;;;;;5052164;28;20168;-66
2020/12/14 01:21:21;;;;;;;5.17;4.77;;;7.80;43.10;;;;;;5052268;28;20208;-65
2020/12/14 01:23:46;;;;;;;5.90;5.40;;;7.70;44.20;;;;;;5052125;28;20306;-66
2020/12/14 01:26:12;;;;;;;5.43;5.00;;;7.80;44.20;;;;;;5052195;28;20423;-65
2020/12/14 01:28:37;;;;;;;6.80;5.40;;;7.70;44.30;;;;;;5051950;28;20223;-66
2020/12/14 01:31:03;;;;;;;6.07;5.50;;;7.50;44.80;;;;;;5052045;28;20172;-65
2020/12/14 01:33:28;;;;;;;5.60;5.20;;;7.60;44.20;;;;;;5051944;28;20205;-65
2020/12/14 01:35:54;;;;;;;4.73;4.37;;;7.30;45.30;;;;;;5051904;28;20211;-65
2020/12/14 01:38:19;;;;;;;5.50;5.10;;;7.40;45.50;;;;;;5051819;28;20653;-65
2020/12/14 01:40:45;;;;;;;5.80;5.30;;;7.60;45.20;;;;;;5051870;28;20178;-65
2020/12/14 01:43:10;;;;;;;5.50;5.00;;;7.70;44.40;;;;;;5051775;28;20188;-65
2020/12/14 01:45:36;;;;;;;4.47;4.17;;;7.50;45.20;;;;;;5051859;28;20266;-66
2020/12/14 01:48:05;;;;;;;5.50;5.10;;;7.60;44.40;;;;;;5051569;28;20200;-66
2020/12/14 01:50:31;;;;;;;4.93;4.60;;;7.70;44.30;;;;;;5051996;28;20179;-66
2020/12/14 01:53:01;;;;;;;5.63;5.13;;;7.70;44.10;;;;;;5051707;28;20529;-65
2020/12/14 01:55:31;;;;;;;5.33;4.93;;;7.70;43.90;;;;;;5051530;28;20167;-66
2020/12/14 01:57:57;;;;;;;5.07;4.70;;;7.90;43.50;;;;;;5051522;28;20395;-65
2020/12/14 02:00:22;;;;;;;4.80;4.40;;;7.90;43.60;;;;;;5051526;28;20824;-66
2020/12/14 02:02:48;;;;;;;5.30;4.80;;;8.00;43.30;;;;;;5051491;28;20674;-65
2020/12/14 02:05:13;;;;;;;5.10;4.70;;;8.00;43.00;;;;;;5051565;28;20647;-65
2020/12/14 02:07:39;;;;;;;5.30;4.87;;;8.00;42.80;;;;;;5051346;28;20175;-66
2020/12/14 02:10:04;;;;;;;6.17;5.70;;;8.00;43.50;;;;;;5051462;28;20164;-65
2020/12/14 02:12:30;;;;;;;5.77;5.27;;;7.70;43.80;;;;;;5051346;28;20196;-65
2020/12/14 02:14:57;;;;;;;5.47;5.07;;;8.00;43.60;;;;;;5051360;28;20177;-66
2020/12/14 02:17:24;;;;;;;5.50;5.10;;;7.80;43.70;;;;;;5051102;28;20207;-65
2020/12/14 02:19:51;;;;;;;5.37;4.97;;;7.70;44.30;;;;;;5051314;28;20422;-65
2020/12/14 02:22:17;;;;;;;5.77;5.27;;;7.70;43.70;;;;;;5051157;28;20426;-65
2020/12/14 02:24:51;;;;;;;4.80;4.50;;;7.60;44.30;;;;;;5051426;28;20422;-65
2020/12/14 02:27:16;;;;;;;5.63;5.23;;;7.60;44.50;;;;;;5049081;28;20406;-65
2020/12/14 02:29:42;;;;;;;4.93;4.53;;;7.70;44.40;;;;;;5051306;28;20418;-66
2020/12/14 02:32:11;;;;;;;5.50;5.10;;;7.70;44.00;;;;;;5051221;28;20191;-65
2020/12/14 02:34:40;;;;;;;5.27;4.93;;;7.80;43.50;;;;;;5051057;28;20479;-65
2020/12/14 02:37:08;;;;;;;5.10;4.80;;;7.60;43.70;;;;;;5050660;28;20464;-65
2020/12/14 02:39:37;;;;;;;4.90;4.40;;;7.50;44.00;;;;;;5050846;28;21101;-66
2020/12/14 02:42:06;;;;;;;5.10;4.70;;;7.70;43.90;;;;;;5050818;28;20808;-65
2020/12/14 02:44:32;;;;;;;5.07;4.77;;;7.70;43.60;;;;;;5050898;28;20471;-66
2020/12/14 02:46:57;;;;;;;5.50;5.03;;;7.70;43.50;;;;;;5050874;28;20936;-65
2020/12/14 02:49:23;;;;;;;4.63;4.33;;;7.70;43.40;;;;;;5050782;28;20262;-65
2020/12/14 02:51:48;;;;;;;4.87;4.47;;;7.50;44.00;;;;;;5050762;28;20168;-65
2020/12/14 02:54:14;;;;;;;5.20;4.80;;;7.50;43.90;;;;;;5050816;28;20183;-64
2020/12/14 02:56:43;;;;;;;5.13;4.73;;;7.50;43.70;;;;;;5050755;28;20209;-65
2020/12/14 02:59:13;;;;;;;4.87;4.53;;;7.70;44.00;;;;;;5050540;28;20199;-65
2020/12/14 03:01:38;;;;;;;5.70;5.30;;;7.80;43.50;;;;;;5050639;28;20414;-65
2020/12/14 03:04:04;;;;;;;5.00;4.50;;;7.80;43.20;;;;;;5050654;28;20414;-65
2020/12/14 03:06:30;;;;;;;4.80;4.50;;;7.90;42.60;;;;;;5050725;28;20180;-65
2020/12/14 03:08:55;;;;;;;4.83;4.53;;;7.90;42.90;;;;;;5050394;28;20482;-65
2020/12/14 03:11:21;;;;;;;5.23;4.90;;;7.80;42.80;;;;;;5050543;28;20415;-64
2020/12/14 03:13:46;;;;;;;4.60;4.30;;;7.80;43.00;;;;;;5050526;28;20192;-65
2020/12/14 03:16:12;;;;;;;5.13;4.80;;;7.70;42.90;;;;;;5050476;28;20765;-65
2020/12/14 03:18:37;;;;;;;4.97;4.53;;;7.70;43.20;;;;;;5050406;28;20287;-65
2020/12/14 03:21:07;;;;;;;4.67;4.37;;;7.50;43.00;;;;;;5050514;28;20239;-66
2020/12/14 03:23:33;;;;;;;4.70;4.30;;;7.70;43.20;;;;;;5050278;28;20200;-65
2020/12/14 03:25:58;;;;;;;5.00;4.60;;;7.60;42.30;;;;;;5050420;28;20425;-66
2020/12/14 03:28:24;;;;;;;4.47;4.17;;;7.60;43.20;;;;;;5050231;28;20414;-65
2020/12/14 03:30:49;;;;;;;4.30;4.00;;;7.50;43.00;;;;;;5050477;28;20182;-64
2020/12/14 03:33:15;;;;;;;4.37;3.97;;;7.40;43.60;;;;;;5050354;28;20204;-65
2020/12/14 03:35:40;;;;;;;4.97;4.17;;;7.40;44.00;;;;;;5050570;28;20245;-65
2020/12/14 03:38:06;;;;;;;5.00;4.60;;;7.30;44.00;;;;;;5052295;28;20178;-64
2020/12/14 03:40:31;;;;;;;4.07;3.87;;;7.30;43.70;;;;;;5054514;28;20189;-65
2020/12/14 03:42:57;;;;;;;4.63;4.33;;;7.40;43.70;;;;;;5054473;28;20278;-65
2020/12/14 03:45:22;;;;;;;4.60;4.20;;;7.50;43.60;;;;;;5054590;28;20504;-65
2020/12/14 03:47:48;;;;;;;5.00;4.60;;;7.40;43.50;;;;;;5054214;28;20176;-64
2020/12/14 03:50:13;;;;;;;3.83;3.53;;;7.50;43.20;;;;;;5054303;28;20172;-65
2020/12/14 03:52:39;;;;;;;4.40;4.10;;;7.60;42.70;;;;;;5053977;28;20188;-65
2020/12/14 03:55:04;;;;;;;4.60;4.20;;;7.60;42.70;;;;;;5053947;28;20310;-65
2020/12/14 03:57:31;;;;;;;4.80;4.47;;;7.60;42.70;;;;;;5053812;28;20565;-65
2020/12/14 03:59:56;;;;;;;4.23;3.97;;;7.60;42.60;;;;;;5053891;28;20530;-65
2020/12/14 04:02:23;;;;;;;4.63;4.33;;;7.60;42.80;;;;;;5053810;28;20428;-64
2020/12/14 04:04:49;;;;;;;4.03;3.80;;;7.40;43.20;;;;;;5053806;28;20171;-64
2020/12/14 04:07:15;;;;;;;4.90;4.47;;;7.20;43.40;;;;;;5053593;28;20411;-65
2020/12/14 04:09:41;;;;;;;4.07;3.80;;;7.30;43.90;;;;;;5053701;28;20205;-65
2020/12/14 04:12:07;;;;;;;4.50;4.20;;;7.10;43.70;;;;;;5053598;28;20440;-65
2020/12/14 04:14:33;;;;;;;5.20;4.20;;;7.10;43.90;;;;;;5053593;28;20414;-64
2020/12/14 04:16:58;;;;;;;4.50;4.13;;;7.10;44.40;;;;;;5053389;28;20245;-65
2020/12/14 04:19:24;;;;;;;5.07;4.67;;;7.30;44.30;;;;;;5053386;28;20198;-65
2020/12/14 04:21:51;;;;;;;5.10;4.43;;;7.40;43.40;;;;;;5053320;28;20207;-65
2020/12/14 04:24:17;;;;;;;4.27;3.87;;;7.40;43.20;;;;;;5053231;28;20195;-65
2020/12/14 04:26:43;;;;;;;4.67;4.37;;;7.50;42.90;;;;;;5053302;28;20910;-65
2020/12/14 04:29:09;;;;;;;5.10;4.70;;;7.50;42.90;;;;;;5053123;28;20426;-65
2020/12/14 04:31:35;;;;;;;5.33;4.57;;;7.50;42.60;;;;;;5053247;28;20417;-65
2020/12/14 04:34:01;;;;;;;4.73;4.43;;;7.20;43.40;;;;;;5053119;28;20513;-65
2020/12/14 04:36:29;;;;;;;5.60;5.20;;;7.10;44.00;;;;;;5053099;28;20572;-66
2020/12/14 04:38:55;;;;;;;6.73;6.13;;;7.30;43.70;;;;;;5052753;28;20436;-66
2020/12/14 04:41:22;;;;;;;5.53;5.03;;;7.40;43.20;;;;;;5053078;28;20403;-66
2020/12/14 04:43:51;;;;;;;4.93;4.43;;;7.60;42.60;;;;;;5053049;28;20430;-66
2020/12/14 04:46:19;;;;;;;5.10;4.70;;;7.60;42.60;;;;;;5052861;28;20415;-66
2020/12/14 04:48:45;;;;;;;5.17;4.77;;;7.70;42.10;;;;;;5052036;28;20796;-66
2020/12/14 04:51:11;;;;;;;5.27;4.87;;;7.80;41.70;;;;;;5052541;28;20917;-66
2020/12/14 04:53:40;;;;;;;5.40;5.00;;;7.90;41.70;;;;;;5052683;28;20480;-65
2020/12/14 04:56:07;;;;;;;5.40;4.97;;;8.00;41.00;;;;;;5052696;28;20536;-66
2020/12/14 04:58:33;;;;;;;5.40;5.00;;;7.90;40.80;;;;;;5052568;28;20472;-66
2020/12/14 05:00:58;;;;;;;4.90;4.60;;;7.90;41.40;;;;;;5052715;28;20411;-67
2020/12/14 05:03:24;;;;;;;4.77;4.47;;;7.90;41.10;;;;;;5052627;28;20188;-66
2020/12/14 05:05:58;;;;;;;4.63;4.33;;;7.80;41.80;;;;;;5052595;28;20187;-66
2020/12/14 05:08:29;;;;;;;5.30;4.90;;;7.70;41.40;;;;;;5052457;28;20175;-66
2020/12/14 05:10:55;;;;;;;5.20;4.83;;;7.50;41.80;;;;;;5052776;28;20502;-63
2020/12/14 05:13:26;;;;;;;5.60;4.97;;;7.50;42.40;;;;;;5052544;28;20995;-65
2020/12/14 05:15:51;;;;;;;5.70;5.37;;;7.60;42.00;;;;;;5052487;28;20465;-65
2020/12/14 05:18:19;;;;;;;5.57;5.00;;;7.50;42.30;;;;;;5052267;28;20414;-65
2020/12/14 05:21:03;;;;;;;4.80;4.40;;;7.40;42.60;;;;;;5052369;28;20167;-67
2020/12/14 05:23:29;;;;;;;5.20;4.90;;;7.60;42.10;;;;;;5052261;28;20978;-64
2020/12/14 05:26:29;;;;;;;5.00;4.60;;;7.40;42.40;;;;;;5052236;28;20406;-65
2020/12/14 05:28:55;;;;;;;5.77;5.37;;;7.30;42.80;;;;;;5051883;28;20421;-65
2020/12/14 05:31:21;;;;;;;6.90;6.20;;;7.20;43.10;;;;;;5052226;28;20422;-65
2020/12/14 05:33:46;;;;;;;5.97;5.53;;;7.30;42.90;;;;;;5051846;28;20199;-65
2020/12/14 05:36:17;;;;;;;7.17;6.47;;;7.30;42.70;;;;;;5051977;28;20209;-65
2020/12/14 05:38:43;;;;;;;6.70;6.10;;;7.20;43.10;;;;;;5051783;28;20169;-65
2020/12/14 05:41:08;;;;;;;5.93;5.50;;;7.20;42.80;;;;;;5051860;28;20480;-64
2020/12/14 05:43:34;;;;;;;8.17;6.10;;;7.30;42.40;;;;;;5051656;28;20606;-65
2020/12/14 05:46:17;;;;;;;6.23;5.73;;;7.30;43.00;;;;;;5051824;28;20215;-65
2020/12/14 05:48:43;;;;;;;6.30;5.80;;;7.50;43.40;;;;;;5050866;28;20180;-66
2020/12/14 05:51:09;;;;;;;6.93;6.40;;;7.40;42.00;;;;;;5051569;28;20421;-66
2020/12/14 05:53:43;;;;;;;6.20;5.70;;;7.40;42.20;;;;;;5051511;28;20434;-65
2020/12/14 05:56:09;;;;;;;7.03;6.43;;;7.20;42.40;;;;;;5051570;28;21037;-65
2020/12/14 05:58:37;;;;;;;7.90;6.60;;;7.30;42.30;;;;;;5051691;28;20489;-65
2020/12/14 06:01:07;;;;;;;7.40;6.80;;;7.40;42.40;;;;;;5051394;28;20437;-66
2020/12/14 06:03:34;;;;;;;6.53;6.00;;;7.20;42.30;;;;;;5051426;28;20423;-63
2020/12/14 06:06:13;;;;;;;6.50;6.00;;;7.50;42.20;;;;;;5051481;28;20903;-64
2020/12/14 06:08:45;;;;;;;6.67;6.07;;;7.50;41.60;;;;;;5051209;28;20406;-64
2020/12/14 06:11:11;;;;;;;6.10;5.60;;;7.40;41.70;;;;;;5051281;28;20434;-65
2020/12/14 06:13:47;;;;;;;7.10;6.40;;;7.10;42.40;;;;;;5051247;28;20773;-65
2020/12/14 06:16:21;;;;;;;7.23;6.53;;;7.10;43.30;;;;;;5051265;28;20896;-65
2020/12/14 06:18:47;;;;;;;6.47;5.87;;;7.30;42.50;;;;;;5051028;28;20523;-65
2020/12/14 06:21:18;;;;;;;7.53;6.93;;;7.40;41.90;;;;;;5051275;28;20490;-66
2020/12/14 06:23:45;;;;;;;7.43;6.73;;;7.50;42.20;;;;;;5051105;28;20211;-65
2020/12/14 06:26:12;;;;;;;7.67;6.37;;;7.50;41.50;;;;;;5051191;28;20419;-65
2020/12/14 06:28:38;;;;;;;7.90;7.03;;;7.60;41.30;;;;;;5050946;28;20425;-65
2020/12/14 06:31:03;;;;;;;9.37;6.97;;;7.50;41.80;;;;;;5051170;28;20418;-65
2020/12/14 06:33:37;;;;;;;7.40;6.70;;;7.40;41.90;;;;;;5050917;28;20198;-65
2020/12/14 06:36:19;;;;;;;8.13;7.27;;;7.10;42.80;;;;;;5050888;28;20253;-64
2020/12/14 06:38:47;;;;;;;7.60;6.90;;;6.70;43.70;;;;;;5050450;28;20405;-64
2020/12/14 06:41:14;;;;;;;7.43;6.73;;;6.80;44.00;;;;;;5049853;28;20413;-65
2020/12/14 06:43:40;;;;;;;6.70;6.13;;;6.90;43.90;;;;;;5050777;28;20854;-64
2020/12/14 06:46:05;;;;;;;6.90;6.30;;;6.80;43.80;;;;;;5050845;28;20501;-65
2020/12/14 06:48:46;;;;;;;7.03;6.33;;;6.70;44.50;;;;;;5050479;28;20496;-65
2020/12/14 06:51:16;;;;;;;7.70;6.97;;;6.90;44.60;;;;;;5050826;28;20596;-65
2020/12/14 06:53:42;;;;;;;8.43;7.40;;;7.00;43.60;;;;;;5050710;28;20426;-65
2020/12/14 06:56:09;;;;;;;8.10;7.30;;;7.10;43.40;;;;;;5050657;28;20446;-65
2020/12/14 06:58:44;;;;;;;7.87;7.17;;;7.40;43.10;;;;;;5050566;28;20402;-65
2020/12/14 07:01:33;;;;;;;9.60;7.30;;;7.50;42.70;;;;;;5050689;28;20818;-64
2020/12/14 07:04:04;;;;;;;7.93;6.20;;;7.90;58.20;;;;;;5050683;28;20419;-65
2020/12/14 07:06:30;;;;;;;7.23;6.53;;;9.80;56.30;;;;;;5050627;28;20403;-65
2020/12/14 07:08:56;;;;;;;9.70;8.70;;;9.10;39.40;;;;;;5050569;28;20463;-66
2020/12/14 07:11:26;;;;;;;8.10;7.30;;;8.80;41.60;;;;;;5050366;28;20403;-66
2020/12/14 07:13:53;;;;;;;9.03;7.10;;;9.20;42.80;;;;;;5053736;28;20414;-66
2020/12/14 07:16:26;;;;;;;7.30;6.63;;;9.00;42.20;;;;;;5054495;28;20988;-66
2020/12/14 07:18:53;;;;;;;8.03;7.30;;;9.10;41.20;;;;;;5054250;28;20406;-64
2020/12/14 07:21:19;;;;;;;8.07;7.37;;;10.00;36.10;;;;;;5054450;28;20418;-65
2020/12/14 07:23:46;;;;;;;7.33;6.63;;;9.50;37.10;;;;;;5054307;28;20458;-65
2020/12/14 07:26:14;;;;;;;9.43;7.27;;;9.20;36.90;;;;;;5054549;28;20276;-65
2020/12/14 07:28:44;;;;;;;7.33;6.67;;;8.60;37.60;;;;;;5054208;28;20415;-65
2020/12/14 07:31:12;;;;;;;7.30;6.70;;;8.30;38.70;;;;;;5054427;28;20908;-65
2020/12/14 07:33:39;;;;;;;7.93;7.20;;;8.00;39.40;;;;;;5054534;28;20430;-65
2020/12/14 07:36:07;;;;;;;8.70;7.97;;;7.90;40.80;;;;;;5054348;28;20453;-65
2020/12/14 07:38:33;;;;;;;7.93;7.23;;;8.00;40.90;;;;;;5054240;28;20905;-65
2020/12/14 07:41:05;;;;;;;8.60;7.70;;;8.20;40.40;;;;;;5054472;28;20413;-65
2020/12/14 07:43:40;;;;;;;11.53;7.87;;;8.20;40.20;;;;;;5054309;28;20179;-65
2020/12/14 07:46:18;;;;;;;8.87;8.07;;;8.30;40.00;;;;;;5054263;28;20434;-65
2020/12/14 07:48:55;;;;;;;8.37;7.57;;;7.90;40.70;;;;;;5054108;28;20420;-65
2020/12/14 07:51:20;;;;;;;9.20;8.40;;;7.70;40.70;;;;;;5054151;28;20425;-64
2020/12/14 07:53:49;;;;;;;11.23;8.27;;;7.50;41.70;;;;;;5033940;28;20439;-67
2020/12/14 07:56:14;;;;;;;8.80;7.90;;;7.10;42.80;;;;;;5049959;28;20207;-65
2020/12/14 07:58:48;;;;;;;9.83;7.70;;;7.10;43.50;;;;;;5053532;28;20425;-66
2020/12/14 08:01:18;;;;;;;10.00;9.13;;;7.30;43.60;;;;;;5053763;28;20174;-66
2020/12/14 08:03:45;;;;;;;9.07;8.13;;;7.40;42.50;;;;;;5053566;28;20929;-67
2020/12/14 08:06:14;;;;;;;11.60;9.83;;;7.40;42.50;;;;;;5053412;28;20485;-67
2020/12/14 08:08:42;;;;;;;9.67;8.67;;;7.30;42.90;;;;;;5053372;28;20399;-66
2020/12/14 08:11:09;;;;;;;8.97;8.17;;;7.30;43.30;;;;;;5053107;28;20410;-66
2020/12/14 08:13:35;;;;;;;11.53;8.13;;;7.30;42.90;;;;;;5053393;28;20450;-65
2020/12/14 08:16:06;;;;;;;9.60;6.90;;;7.10;43.20;;;;;;5053208;28;20457;-66
2020/12/14 08:18:34;;;;;;;8.63;7.80;;;7.20;43.50;;;;;;5053266;28;20414;-66
2020/12/14 08:21:00;;;;;;;9.30;8.33;;;7.10;43.70;;;;;;5053093;28;20410;-65
2020/12/14 08:23:30;;;;;;;9.60;8.70;;;7.20;43.20;;;;;;5053147;28;20575;-65
2020/12/14 08:25:55;;;;;;;9.00;8.10;;;7.10;43.40;;;;;;5053090;28;20175;-67
2020/12/14 08:28:32;;;;;;;9.90;9.00;;;7.20;43.50;;;;;;5053231;28;20445;-65
2020/12/14 08:30:58;;;;;;;10.33;9.10;;;7.30;43.60;;;;;;5053028;28;20822;-65
2020/12/14 08:33:23;;;;;;;9.47;8.57;;;7.40;43.80;;;;;;5053183;28;20932;-67
2020/12/14 08:35:52;;;;;;;9.70;8.77;;;7.50;43.10;;;;;;5053025;28;20446;-66
2020/12/14 08:38:22;;;;;;;9.17;8.40;;;7.60;43.10;;;;;;5052889;28;20198;-67
2020/12/14 08:40:56;;;;;;;10.80;9.07;;;7.90;42.80;;;;;;5053121;28;20399;-64
2020/12/14 08:43:23;;;;;;;10.93;9.03;;;7.90;41.70;;;;;;5052957;28;20454;-68
2020/12/14 08:46:11;;;;;;;11.10;10.03;;;7.90;41.50;;;;;;5052797;28;20415;-68
2020/12/14 08:48:49;;;;;;;9.97;8.97;;;7.80;41.50;;;;;;5052959;28;20401;-68
2020/12/14 08:51:20;;;;;;;9.53;8.63;;;7.80;42.30;;;;;;5053129;28;20406;-66
2020/12/14 08:53:49;;;;;;;9.70;8.70;;;7.80;41.60;;;;;;5052834;28;20467;-65
2020/12/14 08:56:20;;;;;;;9.90;8.90;;;7.70;42.40;;;;;;5052630;28;20482;-66
2020/12/14 08:58:54;;;;;;;11.50;8.83;;;7.80;42.00;;;;;;5052558;28;20480;-65
2020/12/14 09:01:22;;;;;;;9.87;8.90;;;7.80;42.50;;;;;;5052566;28;20413;-66
2020/12/14 09:03:57;;;;;;;10.27;9.27;;;7.80;41.70;;;;;;5052283;28;20422;-67
2020/12/14 09:06:26;;;;;;;9.80;8.80;;;7.90;42.00;;;;;;5052122;28;20425;-66
2020/12/14 09:09:18;;;;;;;11.80;9.57;;;7.90;42.30;;;;;;5052175;28;20420;-67
2020/12/14 09:11:46;;;;;;;10.40;9.40;;;7.90;41.90;;;;;;5051878;28;20423;-66
2020/12/14 09:14:27;;;;;;;12.93;9.53;;;7.80;41.60;;;;;;5052308;28;20476;-67
2020/12/14 09:16:54;;;;;;;10.60;7.57;;;7.80;42.20;;;;;;5052262;28;20462;-66
2020/12/14 09:19:22;;;;;;;10.90;8.70;;;7.80;42.00;;;;;;5051913;28;20406;-66
2020/12/14 09:21:48;;;;;;;9.83;8.83;;;7.80;41.90;;;;;;5052170;28;20421;-66
2020/12/14 09:24:25;;;;;;;12.63;8.17;;;7.80;42.00;;;;;;5051990;28;20462;-66
2020/12/14 09:26:52;;;;;;;9.83;8.93;;;7.90;41.90;;;;;;5052149;28;20429;-65
2020/12/14 09:29:18;;;;;;;10.30;9.40;;;7.90;42.00;;;;;;5051931;28;20410;-66
2020/12/14 09:31:54;;;;;;;9.67;8.23;;;8.00;41.70;;;;;;5051931;28;20453;-67
2020/12/14 09:34:21;;;;;;;7.90;7.07;;;8.30;41.20;;;;;;5052052;28;20171;-66
2020/12/14 09:36:50;;;;;;;10.87;9.23;;;8.30;40.50;;;;;;5051224;28;20457;-66
2020/12/14 09:39:16;;;;;;;8.57;7.77;;;8.30;41.20;;;;;;5051839;28;20399;-65
2020/12/14 09:41:42;;;;;;;9.47;8.67;;;8.40;40.30;;;;;;5051791;28;20415;-66
2020/12/14 09:44:07;;;;;;;10.03;9.03;;;8.40;40.50;;;;;;5051795;28;20520;-65
2020/12/14 09:46:33;;;;;;;9.83;8.03;;;8.70;40.00;;;;;;5051661;28;20735;-65
2020/12/14 09:48:59;;;;;;;10.23;8.00;;;8.70;39.50;;;;;;5051977;28;20176;-65
2020/12/14 09:51:26;;;;;;;10.33;9.10;;;8.60;39.10;;;;;;5051691;28;20168;-65
2020/12/14 09:53:51;;;;;;;9.40;8.50;;;8.60;39.70;;;;;;5051746;28;20440;-66
2020/12/14 09:56:18;;;;;;;9.00;8.10;;;8.80;39.40;;;;;;5051714;28;20533;-67
2020/12/14 09:58:43;;;;;;;9.00;8.10;;;8.90;38.80;;;;;;5051449;28;20184;-67
2020/12/14 10:01:09;;;;;;;9.43;8.50;;;8.90;38.90;;;;;;5051594;28;20486;-67
2020/12/14 10:03:35;;;;;;;9.40;8.50;;;9.10;38.70;;;;;;5051365;28;20308;-65
2020/12/14 10:06:01;;;;;;;9.03;8.27;;;8.90;38.80;;;;;;5051360;28;20716;-65
2020/12/14 10:08:26;;;;;;;9.40;8.00;;;8.80;38.90;;;;;;5051398;28;20967;-65
2020/12/14 10:10:55;;;;;;;9.50;8.60;;;8.80;39.00;;;;;;5051371;28;20602;-65
2020/12/14 10:13:21;;;;;;;8.73;7.93;;;8.70;39.40;;;;;;5050600;28;20200;-66
2020/12/14 10:15:47;;;;;;;8.50;7.80;;;8.90;39.10;;;;;;5051190;28;20546;-65
2020/12/14 10:18:12;;;;;;;8.83;8.03;;;8.80;38.80;;;;;;5050928;28;20501;-65
2020/12/14 10:20:38;;;;;;;8.40;7.60;;;8.70;39.50;;;;;;5051156;28;20171;-64
2020/12/14 10:23:04;;;;;;;8.00;7.30;;;8.80;40.00;;;;;;5051000;28;20207;-64
2020/12/14 10:25:29;;;;;;;8.70;7.90;;;8.70;39.70;;;;;;5050974;28;20180;-65
2020/12/14 10:27:55;;;;;;;8.60;7.90;;;8.80;39.90;;;;;;5050883;28;20442;-65
2020/12/14 10:30:21;;;;;;;7.80;7.10;;;9.00;39.50;;;;;;5050972;28;20172;-65
2020/12/14 10:32:47;;;;;;;7.50;6.80;;;8.90;39.00;;;;;;5050934;28;20196;-65
2020/12/14 10:35:12;;;;;;;8.43;7.63;;;9.00;38.60;;;;;;5050777;28;20520;-65
2020/12/14 10:37:38;;;;;;;8.73;7.93;;;8.90;38.70;;;;;;5050514;28;20465;-65
2020/12/14 10:40:05;;;;;;;8.37;7.60;;;8.90;39.10;;;;;;5050793;28;20167;-65
2020/12/14 10:42:31;;;;;;;7.93;7.13;;;8.80;40.30;;;;;;5050828;28;20225;-65
2020/12/14 10:44:58;;;;;;;8.13;7.43;;;8.80;39.50;;;;;;5050776;28;20410;-65
2020/12/14 10:47:23;;;;;;;7.53;6.90;;;8.80;39.50;;;;;;5049388;28;21162;-64
2020/12/14 10:49:49;;;;;;;8.57;7.70;;;8.80;39.80;;;;;;5050825;28;20494;-64
2020/12/14 10:52:15;;;;;;;7.67;6.97;;;9.00;39.30;;;;;;5050469;28;20192;-65
2020/12/14 10:54:40;;;;;;;8.40;7.50;;;9.10;38.70;;;;;;5050758;28;20494;-65
2020/12/14 10:57:06;;;;;;;7.37;6.70;;;9.10;38.60;;;;;;5044736;28;20773;-66
2020/12/14 10:59:31;;;;;;;7.40;6.80;;;9.20;38.60;;;;;;5045982;28;20211;-66
2020/12/14 11:01:57;;;;;;;7.00;6.40;;;9.40;38.10;;;;;;5030723;28;20685;-66
2020/12/14 11:04:23;;;;;;;7.97;7.10;;;9.40;37.70;;;;;;5030790;28;20227;-66
2020/12/14 11:06:48;;;;;;;8.33;7.30;;;9.50;38.40;;;;;;5030854;28;20223;-67
2020/12/14 11:09:14;;;;;;;7.20;6.60;;;9.50;37.10;;;;;;5030523;28;20502;-66
2020/12/14 11:11:39;;;;;;;8.03;7.33;;;9.60;39.10;;;;;;5030374;28;20549;-66
2020/12/14 11:14:05;;;;;;;12.30;6.87;;;9.90;37.30;;;;;;5030671;28;20643;-66
2020/12/14 11:16:32;;;;;;;7.97;7.20;;;9.90;36.60;;;;;;5030609;28;20560;-66
2020/12/14 11:18:58;;;;;;;8.83;6.73;;;9.90;37.60;;;;;;5035024;28;20176;-66
2020/12/14 11:21:24;;;;;;;7.53;6.83;;;10.10;35.50;;;;;;5050546;28;20809;-66
2020/12/14 11:23:50;;;;;;;12.27;7.90;;;10.00;35.50;;;;;;5050266;28;20446;-66
2020/12/14 11:26:15;;;;;;;9.00;7.57;;;10.20;35.60;;;;;;5050109;28;20893;-67
2020/12/14 11:28:41;;;;;;;7.47;6.67;;;10.20;35.50;;;;;;5049887;28;20180;-66
2020/12/14 11:31:07;;;;;;;6.23;5.73;;;10.30;35.10;;;;;;5050181;28;20654;-68
2020/12/14 11:33:37;;;;;;;10.30;7.53;;;10.30;34.70;;;;;;5049476;28;20200;-66
2020/12/14 11:36:03;;;;;;;8.10;6.20;;;10.20;35.10;;;;;;5050234;28;20457;-66
2020/12/14 11:38:30;;;;;;;6.80;6.20;;;10.50;35.60;;;;;;5049911;28;20893;-67
2020/12/14 11:40:57;;;;;;;6.80;6.10;;;10.40;34.90;;;;;;5050144;28;20955;-67
2020/12/14 11:43:22;;;;;;;11.20;7.30;;;10.50;34.80;;;;;;5050051;28;20442;-67
2020/12/14 11:45:48;;;;;;;7.97;7.27;;;10.60;34.70;;;;;;5050038;28;20936;-66
2020/12/14 11:48:14;;;;;;;6.90;6.30;;;10.60;34.40;;;;;;5050050;28;20178;-67
2020/12/14 11:50:39;;;;;;;7.27;6.53;;;10.70;34.40;;;;;;5050417;28;20258;-67
2020/12/14 11:53:05;;;;;;;6.87;6.17;;;10.80;34.00;;;;;;5050053;28;20258;-67
2020/12/14 11:55:30;;;;;;;6.50;6.00;;;10.80;33.70;;;;;;5050102;28;20218;-65
2020/12/14 11:57:56;;;;;;;9.70;5.90;;;10.80;33.60;;;;;;5049905;28;20669;-66
2020/12/14 12:00:21;;;;;;;8.43;6.60;;;10.80;33.80;;;;;;5053660;28;20259;-66
2020/12/14 12:02:47;;;;;;;11.77;6.23;;;10.90;33.20;;;;;;5053671;28;20200;-65
2020/12/14 12:05:12;;;;;;;6.33;4.97;;;11.00;33.60;;;;;;5053603;28;20259;-66
2020/12/14 12:07:38;;;;;;;6.57;5.93;;;11.00;32.80;;;;;;5053407;28;20214;-64
2020/12/14 12:10:04;;;;;;;12.27;6.63;;;10.90;33.40;;;;;;5053724;28;20176;-64
2020/12/14 12:12:29;;;;;;;6.83;5.27;;;11.10;33.80;;;;;;5053342;28;20192;-64
2020/12/14 12:14:55;;;;;;;6.60;5.43;;;11.20;32.50;;;;;;5053258;28;20426;-66
2020/12/14 12:17:21;;;;;;;6.53;5.93;;;11.20;32.50;;;;;;5052652;28;20702;-65
2020/12/14 12:19:47;;;;;;;6.23;5.73;;;11.30;32.60;;;;;;5053392;28;20182;-66
2020/12/14 12:22:13;;;;;;;7.77;5.83;;;11.30;32.60;;;;;;5053056;28;20192;-66
2020/12/14 12:24:39;;;;;;;7.10;5.73;;;11.30;32.50;;;;;;5053237;28;20413;-65
2020/12/14 12:27:05;;;;;;;7.97;6.00;;;11.40;32.70;;;;;;5052860;28;20168;-65
2020/12/14 12:29:30;;;;;;;6.10;5.60;;;11.40;32.70;;;;;;5053221;28;20426;-65
2020/12/14 12:31:58;;;;;;;5.13;4.73;;;11.50;32.20;;;;;;5053024;28;20204;-65
2020/12/14 12:34:24;;;;;;;7.40;5.10;;;11.40;32.30;;;;;;5053377;28;20176;-65
2020/12/14 12:36:54;;;;;;;6.50;5.57;;;11.40;32.60;;;;;;5053146;28;20484;-67
2020/12/14 12:39:20;;;;;;;7.30;6.00;;;11.60;32.90;;;;;;5052662;28;20418;-66
2020/12/14 12:41:50;;;;;;;5.40;5.00;;;11.70;33.00;;;;;;5052909;28;20435;-66
2020/12/14 12:44:17;;;;;;;6.23;5.73;;;11.70;32.70;;;;;;5052850;28;20411;-66
2020/12/14 12:46:43;;;;;;;5.40;5.00;;;11.70;33.00;;;;;;5052884;28;20421;-65
2020/12/14 12:49:09;;;;;;;5.20;4.80;;;11.70;33.00;;;;;;5045667;28;20494;-66
2020/12/14 12:51:35;;;;;;;7.10;5.20;;;11.70;33.00;;;;;;5041997;28;20572;-66
2020/12/14 12:54:02;;;;;;;10.20;5.63;;;11.70;33.00;;;;;;5041593;28;20427;-65
2020/12/14 12:56:28;;;;;;;6.40;5.87;;;11.80;33.10;;;;;;5040307;28;20283;-68